createdAt,value
2019-06-08T00:01:53.966Z,100428.52
2019-06-08T00:04:22.959Z,100414.45
2019-06-08T00:06:51.820Z,100413.59
2019-06-08T00:09:21.927Z,100414.45
2019-06-08T00:11:50.915Z,100401.84
2019-06-08T00:14:19.572Z,100400.27
2019-06-08T00:16:48.236Z,100401.78
2019-06-08T00:19:17.378Z,100401.49
2019-06-08T00:21:46.253Z,100405.20
2019-06-08T00:24:15.726Z,100398.80
2019-06-08T00:26:44.444Z,100395.34
2019-06-08T00:29:14.155Z,100396.56
2019-06-08T00:31:42.766Z,100396.72
2019-06-08T00:34:11.376Z,100405.36
2019-06-08T00:36:40.010Z,100410.45
2019-06-08T00:39:09.765Z,100412.38
2019-06-08T00:41:38.590Z,100420.78
2019-06-08T00:44:07.193Z,100425.03
2019-06-08T00:46:35.870Z,100422.31
2019-06-08T00:49:04.564Z,100412.27
2019-06-08T00:51:33.281Z,100405.45
2019-06-08T00:54:02.014Z,100407.13
2019-06-08T00:56:30.738Z,100414.86
2019-06-08T00:58:59.366Z,100425.77
2019-06-08T01:01:28.310Z,100429.81
2019-06-08T01:03:56.899Z,100429.38
2019-06-08T01:06:25.538Z,100438.98
2019-06-08T01:08:54.151Z,100433.94
2019-06-08T01:11:22.781Z,100427.28
2019-06-08T01:13:51.471Z,100444.63
2019-06-08T01:16:20.967Z,100455.55
2019-06-08T01:18:49.839Z,100457.94
2019-06-08T01:21:19.435Z,100453.91
2019-06-08T01:23:48.172Z,100456.67
2019-06-08T01:26:16.800Z,100460.92
2019-06-08T01:28:45.461Z,100461.25
2019-06-08T01:31:14.154Z,100471.43
2019-06-08T01:33:42.838Z,100485.19
2019-06-08T01:36:11.707Z,100485.19
2019-06-08T01:38:40.498Z,100474.89
2019-06-08T01:41:09.194Z,100475.28
2019-06-08T01:43:37.845Z,100470.92
2019-06-08T01:46:06.471Z,100472.59
2019-06-08T01:48:35.089Z,100483.95
2019-06-08T01:51:03.872Z,100481.78
2019-06-08T01:53:33.028Z,100479.61
2019-06-08T01:56:01.632Z,100469.91
2019-06-08T01:58:31.437Z,100496.45
2019-06-08T02:01:00.181Z,100481.75
2019-06-08T02:03:30.054Z,100489.59
2019-06-08T02:05:58.871Z,100510.77
2019-06-08T02:08:28.603Z,100524.83
2019-06-08T02:10:57.328Z,100533.31
2019-06-08T02:13:26.871Z,100509.96
2019-06-08T02:15:55.492Z,100514.83
2019-06-08T02:18:36.337Z,100524.86
2019-06-08T02:20:54.503Z,100526.81
2019-06-08T02:23:23.220Z,100523.70
2019-06-08T02:25:51.833Z,100529.41
2019-06-08T02:28:20.532Z,100524.78
2019-06-08T02:30:49.156Z,100540.13
2019-06-08T02:33:17.796Z,100544.23
2019-06-08T02:35:46.651Z,100556.44
2019-06-08T02:38:15.380Z,100564.61
2019-06-08T02:40:44.184Z,100565.64
2019-06-08T02:43:13.154Z,100569.20
2019-06-08T02:45:41.773Z,100563.05
2019-06-08T02:48:10.470Z,100562.08
2019-06-08T02:50:56.173Z,100558.78
2019-06-08T02:53:26.345Z,100557.76
2019-06-08T02:55:55.699Z,100558.87
2019-06-08T02:58:25.075Z,100563.27
2019-06-08T03:00:55.090Z,100565.41
2019-06-08T03:03:23.784Z,100570.38
2019-06-08T03:05:52.594Z,100574.70
2019-06-08T03:08:21.839Z,100580.44
2019-06-08T03:10:54.521Z,100578.80
2019-06-08T03:13:24.203Z,100572.39
2019-06-08T03:15:53.464Z,100573.86
2019-06-08T03:18:22.068Z,100582.28
2019-06-08T03:20:50.781Z,100582.41
2019-06-08T03:23:19.467Z,100584.61
2019-06-08T03:25:52.898Z,100588.39
2019-06-08T03:28:18.536Z,100594.92
2019-06-08T03:30:53.810Z,100598.34
2019-06-08T03:33:17.536Z,100603.44
2019-06-08T03:35:56.047Z,100608.93
2019-06-08T03:38:16.589Z,100627.20
2019-06-08T03:40:45.411Z,100624.34
2019-06-08T03:43:14.094Z,100632.30
2019-06-08T03:45:43.596Z,100634.37
2019-06-08T03:48:13.096Z,100640.97
2019-06-08T03:50:43.926Z,100643.77
2019-06-08T03:53:12.349Z,100637.28
2019-06-08T03:55:43.054Z,100649.57
2019-06-08T03:58:11.717Z,100652.25
2019-06-08T04:00:40.566Z,100655.56
2019-06-08T04:03:09.335Z,100667.58
2019-06-08T04:05:40.233Z,100673.47
2019-06-08T04:08:08.500Z,100681.31
2019-06-08T04:10:37.594Z,100694.39
2019-06-08T04:13:10.995Z,100697.91
2019-06-08T04:15:37.961Z,100693.04
2019-06-08T04:18:07.276Z,100697.13
2019-06-08T04:20:35.887Z,100708.63
2019-06-08T04:23:04.622Z,100710.08
2019-06-08T04:25:33.353Z,100723.11
2019-06-08T04:28:02.066Z,100719.94
2019-06-08T04:30:30.740Z,100731.18
2019-06-08T04:32:59.350Z,100737.91
2019-06-08T04:35:28.159Z,100734.38
2019-06-08T04:37:56.773Z,100742.36
2019-06-08T04:40:25.393Z,100753.45
2019-06-08T04:42:54.019Z,100747.34
2019-06-08T04:45:22.787Z,100748.80
2019-06-08T04:47:51.486Z,100752.73
2019-06-08T04:50:23.318Z,100758.83
2019-06-08T04:52:50.571Z,100765.85
2019-06-08T04:55:19.205Z,100767.02
2019-06-08T04:57:48.786Z,100772.56
2019-06-08T05:00:18.477Z,100778.00
2019-06-08T05:02:49.313Z,100771.88
2019-06-08T05:05:17.454Z,100764.30
2019-06-08T05:07:48.082Z,100767.36
2019-06-08T05:10:16.560Z,100770.05
2019-06-08T05:12:45.670Z,100773.03
2019-06-08T05:15:16.044Z,100785.03
2019-06-08T05:17:45.384Z,100786.31
2019-06-08T05:20:15.916Z,100790.27
2019-06-08T05:22:45.548Z,100785.73
2019-06-08T05:25:14.484Z,100794.01
2019-06-08T05:27:43.404Z,100792.72
2019-06-08T05:30:12.974Z,100787.83
2019-06-08T05:32:41.623Z,100796.74
2019-06-08T05:35:10.822Z,100811.02
2019-06-08T05:37:39.539Z,100795.55
2019-06-08T05:40:08.472Z,100806.69
2019-06-08T05:42:37.155Z,100805.05
2019-06-08T05:45:06.312Z,100822.00
2019-06-08T05:47:35.006Z,100804.97
2019-06-08T05:50:03.839Z,100812.32
2019-06-08T05:52:32.445Z,100798.81
2019-06-08T05:55:01.080Z,100811.88
2019-06-08T05:57:29.702Z,100816.37
2019-06-08T05:59:58.349Z,100813.36
2019-06-08T06:02:27.007Z,100816.19
2019-06-08T06:04:55.770Z,100821.25
2019-06-08T06:07:24.415Z,100820.95
2019-06-08T06:09:53.067Z,100826.34
2019-06-08T06:12:21.727Z,100821.58
2019-06-08T06:14:51.246Z,100827.02
2019-06-08T06:17:20.000Z,100817.30
2019-06-08T06:19:49.249Z,100817.93
2019-06-08T06:22:18.098Z,100818.49
2019-06-08T06:24:47.617Z,100822.88
2019-06-08T06:27:16.571Z,100818.30
2019-06-08T06:29:45.526Z,100823.77
2019-06-08T06:32:14.261Z,100829.35
2019-06-08T06:34:43.910Z,100825.38
2019-06-08T06:37:12.756Z,100844.36
2019-06-08T06:39:41.901Z,100851.64
2019-06-08T06:42:10.642Z,100856.56
2019-06-08T06:44:39.626Z,100860.19
2019-06-08T06:47:08.323Z,100869.00
2019-06-08T06:49:37.025Z,100880.58
2019-06-08T06:52:05.719Z,100870.01
2019-06-08T06:54:34.339Z,100893.96
2019-06-08T06:57:03.001Z,100901.25
2019-06-08T06:59:31.588Z,100901.80
2019-06-08T07:02:00.343Z,100904.50
2019-06-08T07:04:29.034Z,100907.00
2019-06-08T07:06:57.071Z,100908.70
2019-06-08T07:09:25.794Z,100918.34
2019-06-08T07:11:56.285Z,100930.96
2019-06-08T07:14:24.903Z,100937.11
2019-06-08T07:16:54.066Z,100925.32
2019-06-08T07:19:22.844Z,100934.45
2019-06-08T07:21:53.060Z,100937.73
2019-06-08T07:24:22.131Z,100952.41
2019-06-08T07:26:50.740Z,100941.56
2019-06-08T07:29:19.395Z,100950.11
2019-06-08T07:31:49.935Z,100938.56
2019-06-08T07:34:18.781Z,100959.06
2019-06-08T07:36:48.467Z,100947.98
2019-06-08T07:39:17.813Z,100955.66
2019-06-08T07:41:47.399Z,100956.39
2019-06-08T07:44:17.092Z,100958.16
2019-06-08T07:46:46.980Z,100964.42
2019-06-08T07:49:15.789Z,100959.34
2019-06-08T07:51:57.770Z,100967.48
2019-06-08T07:54:14.974Z,100961.84
2019-06-08T07:56:43.626Z,100966.41
2019-06-08T07:59:12.263Z,100967.03
2019-06-08T08:01:40.887Z,100967.76
2019-06-08T08:04:09.659Z,100978.95
2019-06-08T08:06:38.345Z,100973.90
2019-06-08T08:09:07.868Z,100971.88
2019-06-08T08:11:36.586Z,100963.88
2019-06-08T08:14:05.388Z,100971.70
2019-06-08T08:16:34.084Z,100972.58
2019-06-08T08:19:02.838Z,100977.55
2019-06-08T08:21:31.541Z,100986.28
2019-06-08T08:24:01.597Z,100977.47
2019-06-08T08:26:34.234Z,100988.47
2019-06-08T08:29:03.064Z,100989.30
2019-06-08T08:31:31.341Z,100990.68
2019-06-08T08:34:05.730Z,100998.48
2019-06-08T08:36:33.291Z,100983.33
2019-06-08T08:39:02.441Z,100992.09
2019-06-08T08:41:31.352Z,100989.20
2019-06-08T08:44:02.819Z,101001.28
2019-06-08T08:46:30.302Z,100998.20
2019-06-08T08:49:07.342Z,100982.11
2019-06-08T08:51:29.443Z,100985.04
2019-06-08T08:54:03.168Z,100982.37
2019-06-08T08:56:28.674Z,100987.44
2019-06-08T08:59:00.961Z,100994.22
2019-06-08T09:01:28.782Z,100989.56
2019-06-08T09:04:02.907Z,100994.39
2019-06-08T09:06:28.214Z,100988.52
2019-06-08T09:09:00.870Z,100986.92
2019-06-08T09:11:28.897Z,100989.80
2019-06-08T09:14:03.751Z,101000.61
2019-06-08T09:16:28.770Z,100992.61
2019-06-08T09:19:01.024Z,100994.89
2019-06-08T09:21:28.279Z,101009.23
2019-06-08T09:24:00.511Z,101024.94
2019-06-08T09:26:28.782Z,101025.71
2019-06-08T09:28:58.407Z,101024.88
2019-06-08T09:31:28.168Z,101028.56
2019-06-08T09:34:08.620Z,101028.56
2019-06-08T09:36:28.721Z,101030.83
2019-06-08T09:39:00.960Z,101030.83
2019-06-08T09:41:31.179Z,101040.14
2019-06-08T09:44:02.358Z,101032.19
2019-06-08T09:46:28.803Z,101036.52
2019-06-08T09:49:02.819Z,101043.74
2019-06-08T09:51:28.638Z,101044.62
2019-06-08T09:54:00.819Z,101041.08
2019-06-08T09:56:28.402Z,101047.70
2019-06-08T09:59:01.322Z,101032.44
2019-06-08T10:01:28.630Z,101058.55
2019-06-08T10:04:00.623Z,101058.55
2019-06-08T10:06:27.980Z,101056.29
2019-06-08T10:08:56.638Z,101056.29
2019-06-08T10:11:27.916Z,101055.33
2019-06-08T10:13:59.460Z,101054.73
2019-06-08T10:16:27.918Z,101056.83
2019-06-08T10:18:57.657Z,101059.38
2019-06-08T10:21:28.388Z,101059.38
2019-06-08T10:24:00.575Z,101061.56
2019-06-08T10:26:28.118Z,101057.25
2019-06-08T10:29:00.280Z,101065.84
2019-06-08T10:31:36.528Z,101064.37
2019-06-08T10:34:01.564Z,101064.37
2019-06-08T10:36:28.596Z,101070.63
2019-06-08T10:39:01.807Z,101091.73
2019-06-08T10:41:28.020Z,101085.41
2019-06-08T10:43:57.184Z,101086.88
2019-06-08T10:46:25.971Z,101099.30
2019-06-08T10:48:54.646Z,101092.77
2019-06-08T10:51:23.224Z,101082.45
2019-06-08T10:53:53.318Z,101087.95
2019-06-08T10:56:22.350Z,101082.69
2019-06-08T10:58:50.989Z,101091.63
2019-06-08T11:01:19.800Z,101087.27
2019-06-08T11:03:49.057Z,101087.27
2019-06-08T11:06:18.840Z,101091.56
2019-06-08T11:08:47.733Z,101091.56
2019-06-08T11:11:19.457Z,101091.86
2019-06-08T11:13:50.031Z,101091.86
2019-06-08T11:16:18.113Z,101091.42
2019-06-08T11:18:50.635Z,101093.16
2019-06-08T11:21:18.756Z,101088.50
2019-06-08T11:24:04.762Z,101092.53
2019-06-08T11:26:23.866Z,101091.28
2019-06-08T11:28:51.205Z,101093.20
2019-06-08T11:31:19.846Z,101096.58
2019-06-08T11:33:49.094Z,101090.23
2019-06-08T11:36:18.842Z,101097.06
2019-06-08T11:38:48.094Z,101097.06
2019-06-08T11:41:18.969Z,101104.28
2019-06-08T11:43:47.173Z,101106.58
2019-06-08T11:46:19.011Z,101092.09
2019-06-08T11:48:48.365Z,101092.09
2019-06-08T11:51:16.726Z,101093.98
2019-06-08T11:53:48.235Z,101093.98
2019-06-08T11:56:18.260Z,101109.03
2019-06-08T11:58:48.599Z,101109.03
2019-06-08T12:01:18.477Z,101109.71
2019-06-08T12:03:48.338Z,101112.91
2019-06-08T12:06:18.591Z,101109.38
2019-06-08T12:08:47.465Z,101109.38
2019-06-08T12:11:19.774Z,101084.23
2019-06-08T12:13:47.424Z,101084.23
2019-06-08T12:16:21.411Z,101096.41
2019-06-08T12:18:49.219Z,101105.84
2019-06-08T12:21:18.594Z,101116.46
2019-06-08T12:23:47.355Z,101108.39
2019-06-08T12:26:16.043Z,101117.78
2019-06-08T12:28:44.775Z,101109.27
2019-06-08T12:31:17.701Z,101109.27
2019-06-08T12:33:43.922Z,101108.56
2019-06-08T12:36:15.358Z,101108.56
2019-06-08T12:38:42.879Z,101107.39
2019-06-08T12:41:12.721Z,101108.25
2019-06-08T12:43:41.998Z,101102.83
2019-06-08T12:46:11.701Z,101102.83
2019-06-08T12:48:41.000Z,101116.75
2019-06-08T12:51:11.545Z,101110.98
2019-06-08T12:53:40.028Z,101112.63
2019-06-08T12:56:11.829Z,101114.16
2019-06-08T12:58:40.569Z,101105.25
2019-06-08T13:01:10.804Z,101104.89
2019-06-08T13:03:39.924Z,101110.10
2019-06-08T13:06:09.629Z,101097.95
2019-06-08T13:08:38.936Z,101097.95
2019-06-08T13:11:09.344Z,101103.27
2019-06-08T13:13:38.040Z,101103.00
2019-06-08T13:16:08.514Z,101103.16
2019-06-08T13:18:40.273Z,101120.77
2019-06-08T13:21:21.848Z,101120.77
2019-06-08T13:23:41.082Z,101121.66
2019-06-08T13:26:09.004Z,101121.66
2019-06-08T13:28:38.533Z,101130.92
2019-06-08T13:31:07.872Z,101130.92
2019-06-08T13:33:38.280Z,101096.80
2019-06-08T13:36:07.254Z,101096.80
2019-06-08T13:38:37.954Z,101127.39
2019-06-08T13:41:08.614Z,101124.53
2019-06-08T14:13:43.258Z,101123.45
2019-06-08T14:16:11.890Z,101114.05
2019-06-08T14:18:40.559Z,101114.05
2019-06-08T14:21:09.195Z,101120.27
2019-06-08T14:23:41.081Z,101106.59
2019-06-08T14:26:08.451Z,101106.59
2019-06-08T14:28:38.080Z,101126.21
2019-06-08T14:31:08.364Z,101123.62
2019-06-08T14:33:38.129Z,101126.09
2019-06-08T14:36:07.929Z,101130.37
2019-06-08T14:38:41.057Z,101126.36
2019-06-08T14:41:07.693Z,101123.48
2019-06-08T14:43:38.158Z,101124.59
2019-06-08T14:46:08.137Z,101129.67
2019-06-08T14:48:37.957Z,101129.67
2019-06-08T14:51:08.720Z,101130.51
2019-06-08T14:53:38.734Z,101131.47
2019-06-08T14:56:08.902Z,101130.13
2019-06-08T14:58:38.568Z,101123.29
2019-06-08T15:01:08.010Z,101132.78
2019-06-08T15:03:37.865Z,101132.78
2019-06-08T15:06:08.004Z,101126.41
2019-06-08T15:08:37.089Z,101119.67
2019-06-08T15:11:07.925Z,101114.06
2019-06-08T15:13:37.591Z,101118.47
2019-06-08T15:16:08.106Z,101125.84
2019-06-08T15:18:38.542Z,101122.58
2019-06-08T15:21:07.921Z,101132.96
2019-06-08T15:23:36.714Z,101134.02
2019-06-08T15:26:17.579Z,101123.52
2019-06-08T15:28:36.478Z,101123.52
2019-06-08T15:31:08.157Z,101122.31
2019-06-08T15:33:38.196Z,101118.77
2019-06-08T15:36:08.349Z,101104.86
2019-06-08T15:38:38.046Z,101098.94
2019-06-08T15:41:07.805Z,101103.85
2019-06-08T15:43:39.973Z,101105.64
2019-06-08T15:46:08.682Z,101103.02
2019-06-08T15:48:38.149Z,101104.23
2019-06-08T15:51:07.892Z,101099.83
2019-06-08T15:53:37.823Z,101115.55
2019-06-08T15:56:08.428Z,101112.63
2019-06-08T15:58:40.185Z,101099.77
2019-06-08T16:01:07.756Z,101116.56
2019-06-08T16:03:36.437Z,101116.56
2019-06-08T16:06:05.319Z,101105.25
2019-06-08T16:08:37.553Z,101105.25
2019-06-08T16:11:07.462Z,101101.34
2019-06-08T16:13:36.083Z,101092.19
2019-06-08T16:16:04.989Z,101100.98
2019-06-08T16:18:33.654Z,101103.85
2019-06-08T16:21:02.295Z,101109.52
2019-06-08T16:23:31.842Z,101109.52
2019-06-08T16:26:00.789Z,101089.51
2019-06-08T16:28:29.946Z,101089.98
2019-06-08T16:30:58.744Z,101102.34
2019-06-08T16:33:27.419Z,101094.38
2019-06-08T16:35:56.133Z,101102.91
2019-06-08T16:38:24.733Z,101101.03
2019-06-08T16:40:53.473Z,101105.63
2019-06-08T16:43:22.156Z,101105.63
2019-06-08T16:45:50.827Z,101105.88
2019-06-08T16:48:19.443Z,101107.65
2019-06-08T16:50:48.186Z,101107.65
2019-06-08T16:53:16.881Z,101109.48
2019-06-08T16:55:45.599Z,101107.53
2019-06-08T16:58:14.224Z,101107.53
2019-06-08T17:00:42.923Z,101105.91
2019-06-08T17:03:11.569Z,101114.28
2019-06-08T17:05:41.527Z,101110.60
2019-06-08T17:08:10.854Z,101111.24
2019-06-08T17:10:41.000Z,101112.30
2019-06-08T17:13:11.595Z,101112.24
2019-06-08T17:15:40.471Z,101116.98
2019-06-08T17:18:09.255Z,101116.98
2019-06-08T17:20:38.411Z,101113.14
2019-06-08T17:23:07.344Z,101117.09
2019-06-08T17:25:36.616Z,101117.27
2019-06-08T17:28:05.611Z,101117.27
2019-06-08T17:30:35.744Z,101110.29
2019-06-08T17:33:04.823Z,101110.29
2019-06-08T17:35:33.887Z,101116.05
2019-06-08T17:38:02.609Z,101119.13
2019-06-08T17:40:31.976Z,101121.86
2019-06-08T17:43:00.914Z,101126.48
2019-06-08T17:45:29.749Z,101123.18
2019-06-08T17:47:58.386Z,101123.03
2019-06-08T17:50:27.251Z,101122.80
2019-06-08T17:52:55.979Z,101118.70
2019-06-08T17:55:24.747Z,101125.58
2019-06-08T17:57:53.902Z,101116.97
2019-06-08T18:00:22.780Z,101124.09
2019-06-08T18:02:51.512Z,101113.36
2019-06-08T18:05:20.240Z,101113.36
2019-06-08T18:07:49.175Z,101113.34
2019-06-08T18:10:18.140Z,101114.00
2019-06-08T18:12:49.300Z,101114.00
2019-06-08T18:15:17.682Z,101105.89
2019-06-08T18:17:48.227Z,101112.84
2019-06-08T18:20:17.833Z,101116.79
2019-06-08T18:22:49.314Z,101115.78
2019-06-08T18:25:17.785Z,101120.53
2019-06-08T18:28:02.681Z,101115.88
2019-06-08T18:30:18.949Z,101115.88
2019-06-08T18:32:48.689Z,101115.77
2019-06-08T18:35:18.272Z,101113.57
2019-06-08T18:37:48.701Z,101122.00
2019-06-08T18:40:18.232Z,101119.63
2019-06-08T18:42:48.745Z,101120.16
2019-06-08T18:45:18.348Z,101123.94
2019-06-08T18:47:48.388Z,101123.70
2019-06-08T18:50:17.907Z,101123.70
2019-06-08T18:52:49.452Z,101115.83
2019-06-08T18:55:18.274Z,101136.81
2019-06-08T18:57:48.954Z,101136.81
2019-06-08T19:00:18.615Z,101144.94
2019-06-08T19:02:53.601Z,101144.94
2019-06-08T19:05:21.096Z,101138.73
2019-06-08T19:07:51.575Z,101144.45
2019-06-08T19:10:30.789Z,101138.47
2019-06-08T19:12:59.671Z,101155.02
2019-06-08T19:15:41.846Z,101141.06
2019-06-08T19:18:09.086Z,101148.95
2019-06-08T19:20:42.857Z,101151.22
2019-06-08T19:23:09.291Z,101151.22
2019-06-08T19:25:41.221Z,101151.90
2019-06-08T19:28:08.926Z,101162.13
2019-06-08T19:30:40.365Z,101157.58
2019-06-08T19:33:08.598Z,101160.30
2019-06-08T19:35:37.675Z,101160.30
2019-06-08T19:38:08.000Z,101163.47
2019-06-08T19:40:37.888Z,101165.36
2019-06-08T19:43:07.665Z,101165.36
2019-06-08T19:45:39.128Z,101174.20
2019-06-08T19:48:08.254Z,101170.16
2019-06-08T19:50:38.605Z,101180.52
2019-06-08T19:53:07.862Z,101176.11
2019-06-08T19:55:36.850Z,101180.92
2019-06-08T19:58:08.569Z,101182.50
2019-06-08T20:00:39.286Z,101182.83
2019-06-08T20:03:07.787Z,101194.07
2019-06-08T20:05:37.910Z,101185.44
2019-06-08T20:08:09.107Z,101185.44
2019-06-08T20:10:37.841Z,101194.48
2019-06-08T20:13:07.848Z,101194.48
2019-06-08T20:15:43.515Z,101207.40
2019-06-08T20:18:07.398Z,101199.26
2019-06-08T20:20:38.030Z,101209.94
2019-06-08T20:23:09.489Z,101208.44
2019-06-08T20:25:38.195Z,101205.44
2019-06-08T20:28:07.979Z,101205.44
2019-06-08T20:30:37.058Z,101205.97
2019-06-08T20:33:08.121Z,101207.88
2019-06-08T20:35:37.551Z,101207.88
2019-06-08T20:38:08.274Z,101205.27
2019-06-08T20:40:38.360Z,101212.86
2019-06-08T20:43:07.373Z,101212.15
2019-06-08T20:45:37.523Z,101208.84
2019-06-08T20:48:06.548Z,101219.87
2019-06-08T20:50:37.623Z,101220.43
2019-06-08T20:53:08.479Z,101226.27
2019-06-08T20:55:39.993Z,101229.89
2019-06-08T20:58:08.060Z,101230.65
2019-06-08T21:00:37.798Z,101228.57
2019-06-08T21:03:08.151Z,101224.11
2019-06-08T21:05:37.191Z,101230.97
2019-06-08T21:08:08.387Z,101230.97
2019-06-08T21:10:37.815Z,101236.43
2019-06-08T21:13:07.362Z,101236.58
2019-06-08T21:15:38.211Z,101239.58
2019-06-08T21:18:07.882Z,101243.27
2019-06-08T21:20:38.109Z,101230.52
2019-06-08T21:23:08.164Z,101232.05
2019-06-08T21:25:37.383Z,101242.31
2019-06-08T21:28:07.845Z,101242.53
2019-06-08T21:30:37.781Z,101242.29
2019-06-08T21:33:08.346Z,101241.45
2019-06-08T21:35:37.351Z,101244.05
2019-06-08T21:38:20.200Z,101246.47
2019-06-08T21:40:38.373Z,101240.00
2019-06-08T21:43:08.131Z,101241.81
2019-06-08T21:45:38.082Z,101244.42
2019-06-08T21:48:09.659Z,101241.52
2019-06-08T21:50:38.429Z,101239.83
2019-06-08T21:53:07.851Z,101249.30
2019-06-08T21:55:38.080Z,101252.97
2019-06-08T21:58:08.061Z,101250.05
2019-06-08T22:00:43.024Z,101248.50
2019-06-08T22:03:08.267Z,101253.31
2019-06-08T22:05:37.694Z,101253.31
2019-06-08T22:08:07.993Z,101253.02
2019-06-08T22:10:37.687Z,101261.34
2019-06-08T22:13:12.282Z,101263.92
2019-06-08T22:15:40.268Z,101263.02
2019-06-08T22:18:09.237Z,101271.28
2019-06-08T22:20:38.485Z,101271.52
2019-06-08T22:23:07.490Z,101268.83
2019-06-08T22:25:40.337Z,101259.75
2019-06-08T22:28:12.129Z,101265.01
2019-06-08T22:30:43.066Z,101264.41
2019-06-08T22:33:11.410Z,101275.86
2019-06-08T22:35:40.278Z,101273.58
2019-06-08T22:38:09.154Z,101273.81
2019-06-08T22:40:37.955Z,101273.07
2019-06-08T22:43:08.022Z,101282.57
2019-06-08T22:45:37.527Z,101281.98
2019-06-08T22:48:08.154Z,101278.02
2019-06-08T22:50:38.185Z,101282.43
2019-06-08T22:53:08.058Z,101284.70
2019-06-08T22:55:38.267Z,101282.15
2019-06-08T22:58:07.689Z,101283.38
2019-06-08T23:00:51.839Z,101279.84
2019-06-08T23:03:08.626Z,101279.90
2019-06-08T23:05:37.565Z,101282.94
2019-06-08T23:08:09.135Z,101273.20
2019-06-08T23:10:37.411Z,101279.16
2019-06-08T23:13:08.282Z,101276.08
2019-06-08T23:15:36.588Z,101279.21
2019-06-08T23:18:06.597Z,101277.37
2019-06-08T23:20:37.137Z,101277.86
2019-06-08T23:23:08.651Z,101279.23
2019-06-08T23:25:37.316Z,101275.06
2019-06-08T23:28:09.548Z,101279.00
2019-06-08T23:30:38.303Z,101279.20
2019-06-08T23:33:11.540Z,101278.52
2019-06-08T23:35:57.111Z,101277.56
2019-06-08T23:38:09.317Z,101269.67
2019-06-08T23:40:38.381Z,101279.09
2019-06-08T23:43:08.261Z,101276.28
2019-06-08T23:45:37.938Z,101268.83
2019-06-08T23:48:06.842Z,101267.92
2019-06-08T23:50:37.791Z,101272.70
2019-06-08T23:53:09.124Z,101265.55
2019-06-08T23:55:37.238Z,101266.95
2019-06-08T23:58:09.473Z,101264.50
